createdAt,value
2023-03-15T00:03:47.878Z,4.43
2023-03-15T00:06:19.080Z,4.17
2023-03-15T00:08:50.078Z,5.17
2023-03-15T00:11:21.672Z,4.43
2023-03-15T00:13:52.744Z,4.63
2023-03-15T00:16:25.105Z,3.70
2023-03-15T00:18:56.186Z,3.43
2023-03-15T00:21:28.763Z,3.60
2023-03-15T00:23:59.784Z,4.73
2023-03-15T00:26:30.647Z,3.70
2023-03-15T00:29:01.607Z,4.90
2023-03-15T00:31:32.727Z,4.30
2023-03-15T00:34:03.860Z,4.10
2023-03-15T00:36:35.225Z,3.53
2023-03-15T00:39:06.250Z,2.53
2023-03-15T00:41:37.183Z,2.70
2023-03-15T00:44:08.507Z,3.83
2023-03-15T00:46:39.401Z,2.70
2023-03-15T00:49:10.518Z,2.30
2023-03-15T00:51:41.586Z,2.43
2023-03-15T00:54:14.029Z,2.50
2023-03-15T00:56:45.396Z,2.60
2023-03-15T00:59:16.523Z,2.17
2023-03-15T01:01:47.400Z,2.40
2023-03-15T01:04:18.507Z,2.47
2023-03-15T01:06:49.547Z,2.27
2023-03-15T01:09:20.551Z,2.40
2023-03-15T01:11:54.536Z,2.40
2023-03-15T01:14:25.386Z,2.00
2023-03-15T01:16:56.237Z,2.37
2023-03-15T01:19:27.137Z,2.60
2023-03-15T01:21:58.053Z,2.60
2023-03-15T01:24:29.223Z,2.33
2023-03-15T01:27:00.128Z,2.20
2023-03-15T01:29:31.073Z,2.03
2023-03-15T01:32:02.101Z,2.53
2023-03-15T01:34:33.303Z,2.17
2023-03-15T01:37:04.342Z,2.80
2023-03-15T01:39:35.278Z,2.20
2023-03-15T01:42:06.935Z,1.83
2023-03-15T01:44:55.688Z,1.53
2023-03-15T01:47:27.815Z,1.83
2023-03-15T01:50:03.047Z,2.70
2023-03-15T01:52:37.547Z,2.40
2023-03-15T01:55:12.297Z,3.00
2023-03-15T01:57:46.425Z,2.67
2023-03-15T02:00:20.420Z,2.33
2023-03-15T02:02:54.236Z,2.07
2023-03-15T02:05:28.081Z,2.47
2023-03-15T02:07:59.333Z,2.33
2023-03-15T02:10:32.710Z,2.13
2023-03-15T02:13:04.040Z,2.30
2023-03-15T02:15:35.435Z,2.00
2023-03-15T02:18:06.372Z,2.10
2023-03-15T02:20:40.450Z,2.23
2023-03-15T02:23:14.137Z,2.67
2023-03-15T02:25:47.885Z,2.70
2023-03-15T02:28:20.107Z,2.73
2023-03-15T02:30:51.756Z,2.17
2023-03-15T02:33:26.109Z,2.53
2023-03-15T02:35:57.736Z,2.20
2023-03-15T02:38:28.731Z,1.80
2023-03-15T02:41:00.240Z,1.70
2023-03-15T02:43:34.243Z,1.87
2023-03-15T02:46:06.959Z,2.43
2023-03-15T02:48:39.615Z,2.20
2023-03-15T02:51:12.018Z,1.90
2023-03-15T02:53:42.919Z,1.63
2023-03-15T02:56:14.636Z,2.10
2023-03-15T02:58:46.218Z,1.47
2023-03-15T03:01:19.903Z,2.10
2023-03-15T03:03:51.081Z,1.37
2023-03-15T03:06:22.264Z,1.60
2023-03-15T03:08:53.178Z,1.67
2023-03-15T03:11:24.087Z,1.90
2023-03-15T03:13:55.026Z,1.60
2023-03-15T03:16:26.241Z,1.50
2023-03-15T03:18:57.159Z,1.50
2023-03-15T03:21:28.146Z,1.30
2023-03-15T03:24:17.349Z,2.00
2023-03-15T03:26:48.482Z,1.73
2023-03-15T03:29:19.392Z,1.40
2023-03-15T03:31:50.731Z,1.73
2023-03-15T03:34:21.830Z,1.63
2023-03-15T03:36:53.038Z,1.50
2023-03-15T03:39:24.163Z,1.73
2023-03-15T03:41:55.100Z,1.57
2023-03-15T03:44:26.060Z,1.57
2023-03-15T03:46:56.985Z,1.20
2023-03-15T03:49:28.033Z,1.90
2023-03-15T03:52:00.446Z,1.13
2023-03-15T03:54:32.598Z,1.20
2023-03-15T03:57:03.657Z,1.40
2023-03-15T03:59:34.644Z,1.83
2023-03-15T04:02:05.809Z,1.60
2023-03-15T04:04:37.362Z,1.27
2023-03-15T04:07:08.689Z,1.53
2023-03-15T04:09:42.199Z,1.50
2023-03-15T04:12:14.394Z,1.33
2023-03-15T04:14:45.802Z,1.67
2023-03-15T04:17:16.702Z,1.67
2023-03-15T04:19:47.747Z,1.30
2023-03-15T04:22:18.795Z,1.10
2023-03-15T04:24:50.866Z,1.57
2023-03-15T04:27:21.768Z,1.90
2023-03-15T04:29:53.089Z,1.43
2023-03-15T04:32:24.281Z,1.00
2023-03-15T04:34:56.086Z,1.20
2023-03-15T04:37:27.090Z,1.40
2023-03-15T04:39:58.169Z,1.40
2023-03-15T04:42:29.006Z,1.87
2023-03-15T04:44:59.998Z,1.00
2023-03-15T04:47:31.343Z,1.60
2023-03-15T04:50:04.475Z,1.17
2023-03-15T04:52:35.391Z,1.30
2023-03-15T04:55:07.387Z,1.33
2023-03-15T04:57:38.320Z,1.23
2023-03-15T05:00:13.254Z,0.80
2023-03-15T05:02:44.252Z,1.00
2023-03-15T05:05:15.291Z,1.13
2023-03-15T05:07:46.305Z,1.20
2023-03-15T05:10:18.133Z,1.40
2023-03-15T05:12:49.640Z,1.10
2023-03-15T05:15:21.156Z,1.23
2023-03-15T05:17:53.838Z,1.30
2023-03-15T05:20:25.474Z,1.43
2023-03-15T05:22:56.473Z,1.37
2023-03-15T05:25:27.369Z,1.30
2023-03-15T05:27:58.876Z,1.23
2023-03-15T05:30:29.902Z,1.57
2023-03-15T05:33:02.326Z,1.90
2023-03-15T05:35:33.442Z,1.50
2023-03-15T05:38:04.404Z,1.70
2023-03-15T05:40:35.391Z,1.50
2023-03-15T05:43:06.812Z,2.20
2023-03-15T05:45:37.911Z,1.30
2023-03-15T05:50:48.201Z,1.70
2023-03-15T05:53:18.955Z,1.03
2023-03-15T05:55:49.824Z,1.40
2023-03-15T05:58:20.818Z,1.70
2023-03-15T06:00:51.814Z,2.40
2023-03-15T06:03:22.743Z,1.37
2023-03-15T06:05:53.745Z,1.32
2023-03-15T06:08:24.698Z,1.40
2023-03-15T06:10:55.732Z,1.17
2023-03-15T06:13:26.856Z,1.60
2023-03-15T06:15:57.804Z,1.17
2023-03-15T06:18:28.876Z,1.23
2023-03-15T06:20:59.729Z,1.17
2023-03-15T06:23:30.698Z,1.20
2023-03-15T06:26:01.864Z,1.07
2023-03-15T06:28:32.789Z,2.47
2023-03-15T06:31:09.951Z,3.00
2023-03-15T06:33:41.536Z,2.23
2023-03-15T06:36:14.500Z,1.60
2023-03-15T06:38:45.380Z,1.70
2023-03-15T06:41:17.294Z,2.30
2023-03-15T06:43:48.341Z,2.27
2023-03-15T06:46:19.080Z,2.43
2023-03-15T06:48:50.042Z,2.73
2023-03-15T06:51:21.199Z,2.83
2023-03-15T06:53:52.094Z,2.00
2023-03-15T06:56:23.065Z,1.40
2023-03-15T06:58:54.098Z,2.43
2023-03-15T07:01:25.170Z,1.73
2023-03-15T07:03:56.145Z,2.03
2023-03-15T07:06:28.428Z,1.90
2023-03-15T07:08:59.912Z,1.77
2023-03-15T07:11:30.851Z,1.40
2023-03-15T07:14:01.702Z,2.20
2023-03-15T07:16:32.703Z,1.90
2023-03-15T07:19:03.786Z,1.60
2023-03-15T07:21:35.063Z,2.10
2023-03-15T07:24:06.982Z,2.53
2023-03-15T07:26:37.886Z,2.17
2023-03-15T07:29:09.026Z,2.00
2023-03-15T07:31:39.898Z,1.80
2023-03-15T07:34:10.843Z,2.13
2023-03-15T07:36:41.766Z,1.70
2023-03-15T07:39:12.924Z,1.63
2023-03-15T07:41:44.064Z,2.03
2023-03-15T07:44:15.191Z,2.00
2023-03-15T07:46:47.248Z,2.60
2023-03-15T07:49:18.603Z,2.13
2023-03-15T07:51:49.597Z,2.70
2023-03-15T07:54:20.998Z,2.17
2023-03-15T07:56:52.234Z,1.40
2023-03-15T07:59:23.401Z,1.80
2023-03-15T08:01:54.221Z,1.87
2023-03-15T08:04:25.203Z,1.70
2023-03-15T08:06:56.001Z,2.30
2023-03-15T08:09:27.393Z,2.30
2023-03-15T08:11:58.418Z,1.70
2023-03-15T08:14:31.741Z,2.20
2023-03-15T08:17:02.717Z,2.47
2023-03-15T08:19:33.540Z,2.00
2023-03-15T08:22:05.822Z,2.07
2023-03-15T08:24:37.334Z,2.00
2023-03-15T08:27:09.497Z,1.30
2023-03-15T08:29:40.597Z,1.90
2023-03-15T08:32:12.602Z,1.43
2023-03-15T08:34:43.598Z,1.80
2023-03-15T08:37:14.833Z,2.73
2023-03-15T08:39:45.888Z,1.40
2023-03-15T08:42:16.837Z,1.53
2023-03-15T08:44:47.815Z,1.60
2023-03-15T08:47:18.764Z,1.60
2023-03-15T08:49:49.879Z,1.30
2023-03-15T08:52:21.463Z,1.60
2023-03-15T08:54:52.442Z,1.30
2023-03-15T08:57:25.992Z,1.27
2023-03-15T08:59:57.774Z,1.20
2023-03-15T09:02:28.746Z,1.43
2023-03-15T09:04:59.761Z,1.50
2023-03-15T09:07:32.443Z,1.30
2023-03-15T09:10:05.715Z,1.27
2023-03-15T09:12:36.886Z,1.13
2023-03-15T09:15:09.688Z,1.03
2023-03-15T09:17:40.826Z,1.17
2023-03-15T09:20:16.842Z,1.17
2023-03-15T09:22:52.704Z,1.40
2023-03-15T09:25:24.480Z,1.00
2023-03-15T09:27:56.169Z,1.37
2023-03-15T09:30:27.097Z,1.30
2023-03-15T09:32:58.155Z,1.30
2023-03-15T09:35:47.621Z,1.30
2023-03-15T09:38:18.745Z,1.07
2023-03-15T09:40:49.798Z,1.40
2023-03-15T09:43:35.283Z,1.30
2023-03-15T09:46:12.848Z,1.23
2023-03-15T09:48:47.462Z,1.17
2023-03-15T09:51:21.463Z,0.93
2023-03-15T09:56:33.917Z,1.10
2023-03-15T09:59:05.524Z,1.00
2023-03-15T10:01:38.741Z,1.20
2023-03-15T10:04:14.513Z,1.47
2023-03-15T10:06:48.784Z,1.50
2023-03-15T10:09:22.635Z,1.17
2023-03-15T10:12:00.135Z,1.00
2023-03-15T10:14:36.669Z,1.30
2023-03-15T10:17:11.155Z,0.97
2023-03-15T10:19:47.691Z,1.10
2023-03-15T10:22:24.610Z,1.13
2023-03-15T10:24:57.934Z,1.10
2023-03-15T10:27:32.050Z,1.03
2023-03-15T10:30:03.990Z,1.17
2023-03-15T10:32:38.432Z,1.03
2023-03-15T10:35:15.960Z,0.93
2023-03-15T10:37:47.648Z,0.70
2023-03-15T10:40:20.729Z,1.00
2023-03-15T10:42:51.744Z,0.93
2023-03-15T10:45:24.697Z,1.20
2023-03-15T10:48:00.680Z,0.70
2023-03-15T10:50:31.141Z,0.90
2023-03-15T10:53:04.766Z,0.90
2023-03-15T10:55:38.504Z,0.90
2023-03-15T11:01:08.194Z,0.67
2023-03-15T11:03:39.995Z,0.90
2023-03-15T11:06:23.769Z,0.77
2023-03-15T11:08:54.655Z,0.90
2023-03-15T11:11:25.644Z,0.67
2023-03-15T11:14:01.880Z,1.10
2023-03-15T11:16:36.631Z,1.00
2023-03-15T11:19:13.183Z,1.07
2023-03-15T11:21:46.438Z,0.70
2023-03-15T11:24:24.123Z,0.90
2023-03-15T11:26:56.337Z,0.80
2023-03-15T11:29:29.835Z,0.80
2023-03-15T11:32:02.451Z,0.70
2023-03-15T11:34:40.883Z,0.87
2023-03-15T11:37:18.485Z,0.80
2023-03-15T11:39:58.850Z,0.77
2023-03-15T11:42:29.102Z,0.97
2023-03-15T11:45:03.496Z,0.70
2023-03-15T11:47:42.912Z,0.50
2023-03-15T11:50:17.116Z,0.50
2023-03-15T11:52:51.561Z,0.80
2023-03-15T11:55:26.417Z,0.53
2023-03-15T11:57:58.952Z,0.37
2023-03-15T12:00:52.857Z,0.80
2023-03-15T12:03:34.550Z,0.77
2023-03-15T12:06:11.603Z,0.60
2023-03-15T12:08:50.680Z,0.50
2023-03-15T12:11:57.564Z,0.83
2023-03-15T12:14:34.906Z,0.53
2023-03-15T12:17:45.301Z,0.80
2023-03-15T12:23:22.431Z,0.50
2023-03-15T12:25:57.509Z,0.70
2023-03-15T12:28:32.531Z,0.63
2023-03-15T12:31:06.944Z,0.90
2023-03-15T12:33:47.033Z,1.20
2023-03-15T12:36:25.217Z,0.40
2023-03-15T12:39:05.148Z,0.40
2023-03-15T12:41:42.709Z,0.80
2023-03-15T12:44:40.475Z,0.50
2023-03-15T12:47:12.358Z,0.53
2023-03-15T12:49:45.436Z,0.90
2023-03-15T12:52:38.732Z,0.50
2023-03-15T12:55:15.740Z,0.40
2023-03-15T12:57:51.510Z,0.47
2023-03-15T13:00:25.553Z,0.70
2023-03-15T13:03:02.194Z,0.60
2023-03-15T13:05:37.710Z,0.47
2023-03-15T13:08:11.474Z,0.43
2023-03-15T13:13:38.834Z,0.43
2023-03-15T13:16:17.725Z,0.30
2023-03-15T13:18:54.684Z,0.40
2023-03-15T13:21:30.439Z,0.53
2023-03-15T13:24:02.566Z,0.30
2023-03-15T13:26:47.016Z,0.60
2023-03-15T13:29:20.251Z,0.80
2023-03-15T13:32:02.416Z,0.60
2023-03-15T13:34:35.042Z,0.50
2023-03-15T13:37:07.288Z,0.63
2023-03-15T13:39:38.441Z,0.30
2023-03-15T13:42:19.156Z,0.63
2023-03-15T13:44:51.804Z,0.67
2023-03-15T13:47:23.463Z,1.60
2023-03-15T13:49:57.715Z,0.60
2023-03-15T13:52:28.966Z,0.50
2023-03-15T13:55:01.872Z,0.50
2023-03-15T13:57:33.133Z,0.50
2023-03-15T14:02:51.736Z,0.30
2023-03-15T14:05:27.547Z,0.47
2023-03-15T14:08:04.462Z,0.50
2023-03-15T14:10:37.146Z,0.53
2023-03-15T14:13:25.126Z,0.53
2023-03-15T14:16:01.666Z,0.50
2023-03-15T14:18:37.881Z,0.77
2023-03-15T14:21:12.139Z,0.50
2023-03-15T14:23:45.446Z,0.60
2023-03-15T14:26:20.186Z,0.57
2023-03-15T14:28:54.367Z,0.43
2023-03-15T14:31:28.207Z,0.47
2023-03-15T14:34:01.934Z,0.50
2023-03-15T14:36:36.747Z,0.60
2023-03-15T14:39:09.118Z,0.50
2023-03-15T14:41:40.062Z,0.40
2023-03-15T14:44:11.111Z,0.60
2023-03-15T14:46:42.342Z,0.47
2023-03-15T14:49:16.863Z,0.53
2023-03-15T14:51:48.599Z,0.60
2023-03-15T14:54:20.229Z,0.60
2023-03-15T14:56:51.607Z,0.50
2023-03-15T14:59:23.487Z,0.60
2023-03-15T15:01:56.863Z,0.73
2023-03-15T15:04:30.526Z,0.93
2023-03-15T15:07:03.406Z,0.70
2023-03-15T15:09:36.591Z,0.60
2023-03-15T15:12:10.846Z,0.70
2023-03-15T15:14:42.950Z,0.70
2023-03-15T15:17:14.465Z,0.50
2023-03-15T15:22:23.812Z,0.60
2023-03-15T15:24:54.736Z,0.50
2023-03-15T15:27:26.151Z,0.50
2023-03-15T15:29:57.438Z,0.40
2023-03-15T15:32:28.389Z,0.62
2023-03-15T15:34:59.636Z,0.63
2023-03-15T15:37:30.955Z,0.70
2023-03-15T15:40:02.260Z,0.70
2023-03-15T15:42:33.545Z,0.90
2023-03-15T15:45:04.494Z,0.70
2023-03-15T15:47:35.450Z,0.50
2023-03-15T15:50:07.675Z,0.80
2023-03-15T15:52:40.793Z,0.60
2023-03-15T15:55:15.028Z,0.70
2023-03-15T15:57:49.798Z,0.40
2023-03-15T16:03:01.818Z,0.80
2023-03-15T16:05:33.868Z,0.60
2023-03-15T16:08:07.978Z,0.70
2023-03-15T16:10:39.128Z,0.90
2023-03-15T16:13:13.733Z,0.80
2023-03-15T16:15:44.818Z,0.70
2023-03-15T16:18:16.548Z,0.60
2023-03-15T16:20:47.604Z,0.50
2023-03-15T16:23:22.117Z,0.70
2023-03-15T16:25:55.550Z,0.70
2023-03-15T16:28:26.923Z,0.60
2023-03-15T16:30:58.094Z,0.80
2023-03-15T16:33:29.069Z,0.70
2023-03-15T16:36:00.155Z,0.50
2023-03-15T16:38:33.372Z,0.90
2023-03-15T16:41:04.442Z,0.70
2023-03-15T16:43:35.434Z,0.63
2023-03-15T16:46:14.624Z,0.80
2023-03-15T16:48:45.839Z,0.60
2023-03-15T16:51:18.197Z,0.57
2023-03-15T16:53:49.154Z,0.47
2023-03-15T16:56:20.185Z,0.50
2023-03-15T16:58:54.161Z,0.70
2023-03-15T17:01:26.014Z,0.57
2023-03-15T17:03:58.287Z,0.63
2023-03-15T17:06:29.384Z,0.70
2023-03-15T17:09:03.555Z,0.50
2023-03-15T17:11:36.229Z,0.70
2023-03-15T17:14:08.699Z,1.07
2023-03-15T17:16:39.719Z,0.63
2023-03-15T17:19:14.226Z,0.73
2023-03-15T17:21:45.931Z,0.60
2023-03-15T17:26:56.145Z,0.80
2023-03-15T17:29:27.223Z,0.50
2023-03-15T17:31:58.357Z,0.60
2023-03-15T17:34:29.345Z,0.57
2023-03-15T17:37:00.707Z,0.60
2023-03-15T17:39:31.714Z,0.60
2023-03-15T17:42:02.507Z,0.90
2023-03-15T17:44:33.475Z,0.60
2023-03-15T17:47:05.933Z,0.60
2023-03-15T17:49:37.008Z,0.70
2023-03-15T17:52:12.166Z,0.90
2023-03-15T17:54:43.221Z,0.90
2023-03-15T17:57:14.866Z,0.60
2023-03-15T17:59:45.822Z,0.67
2023-03-15T18:02:18.019Z,0.63
2023-03-15T18:04:49.384Z,0.80
2023-03-15T18:07:20.239Z,0.60
2023-03-15T18:09:51.438Z,0.70
2023-03-15T18:12:23.178Z,0.67
2023-03-15T18:14:54.300Z,0.43
2023-03-15T18:17:25.443Z,1.00
2023-03-15T18:20:15.745Z,0.83
2023-03-15T18:23:05.621Z,1.20
2023-03-15T18:25:37.458Z,2.37
2023-03-15T18:28:08.695Z,1.30
2023-03-15T18:30:40.059Z,0.90
2023-03-15T18:33:11.732Z,0.80
2023-03-15T18:35:42.862Z,1.10
2023-03-15T18:38:15.674Z,1.30
2023-03-15T18:40:47.839Z,1.07
2023-03-15T18:43:19.047Z,0.90
2023-03-15T18:45:50.253Z,1.30
2023-03-15T18:48:34.164Z,1.10
2023-03-15T18:50:54.931Z,1.17
2023-03-15T18:53:25.972Z,0.97
2023-03-15T18:55:57.020Z,1.00
2023-03-15T18:58:28.179Z,1.00
2023-03-15T19:00:59.802Z,1.17
2023-03-15T19:03:31.063Z,0.93
2023-03-15T19:06:07.856Z,1.20
2023-03-15T19:08:39.200Z,1.03
2023-03-15T19:11:11.903Z,0.97
2023-03-15T19:13:43.600Z,1.03
2023-03-15T19:16:14.345Z,1.10
2023-03-15T19:18:45.386Z,1.50
2023-03-15T19:21:16.579Z,2.05
2023-03-15T19:23:47.620Z,2.50
2023-03-15T19:26:18.464Z,1.70
2023-03-15T19:28:49.596Z,1.10
2023-03-15T19:33:59.423Z,1.50
2023-03-15T19:36:31.643Z,1.87
2023-03-15T19:39:03.858Z,1.20
2023-03-15T19:41:36.095Z,1.83
2023-03-15T19:44:07.549Z,1.60
2023-03-15T19:46:38.625Z,1.37
2023-03-15T19:49:09.558Z,1.03
2023-03-15T19:51:40.583Z,1.07
2023-03-15T19:54:11.476Z,1.10
2023-03-15T19:56:42.708Z,1.40
2023-03-15T19:59:13.872Z,1.10
2023-03-15T20:01:46.139Z,1.10
2023-03-15T20:04:17.174Z,1.00
2023-03-15T20:06:48.108Z,0.80
2023-03-15T20:09:19.039Z,1.00
2023-03-15T20:11:50.079Z,0.90
2023-03-15T20:14:20.996Z,1.13
2023-03-15T20:16:51.956Z,1.20
2023-03-15T20:19:23.680Z,1.10
2023-03-15T20:21:58.020Z,0.93
2023-03-15T20:24:29.234Z,1.13
2023-03-15T20:27:00.126Z,1.07
2023-03-15T20:29:32.504Z,1.20
2023-03-15T20:32:03.535Z,1.00
2023-03-15T20:34:34.679Z,0.80
2023-03-15T20:37:06.651Z,1.20
2023-03-15T20:39:38.945Z,1.40
2023-03-15T20:42:09.955Z,1.23
2023-03-15T20:44:42.391Z,1.40
2023-03-15T20:47:13.223Z,1.30
2023-03-15T20:49:44.177Z,1.00
2023-03-15T20:52:15.567Z,1.13
2023-03-15T20:54:46.795Z,1.73
2023-03-15T20:57:17.705Z,1.30
2023-03-15T20:59:49.703Z,1.53
2023-03-15T21:02:22.377Z,1.40
2023-03-15T21:04:53.473Z,1.50
2023-03-15T21:07:24.661Z,1.60
2023-03-15T21:09:55.663Z,1.37
2023-03-15T21:12:26.663Z,1.17
2023-03-15T21:14:57.616Z,0.90
2023-03-15T21:17:28.586Z,0.80
2023-03-15T21:19:59.578Z,1.40
2023-03-15T21:22:30.615Z,0.90
2023-03-15T21:25:02.194Z,0.80
2023-03-15T21:27:34.046Z,0.93
2023-03-15T21:30:06.751Z,0.90
2023-03-15T21:32:38.477Z,1.20
2023-03-15T21:35:10.976Z,1.00
2023-03-15T21:37:41.860Z,1.00
2023-03-15T21:40:15.860Z,0.70
2023-03-15T21:42:47.977Z,0.90
2023-03-15T21:45:19.635Z,1.17
2023-03-15T21:47:52.181Z,1.02
2023-03-15T21:50:23.461Z,1.10
2023-03-15T21:52:54.850Z,1.17
2023-03-15T21:55:25.615Z,0.90
2023-03-15T21:57:56.653Z,1.03
2023-03-15T22:00:28.958Z,1.10
2023-03-15T22:02:59.971Z,1.00
2023-03-15T22:05:30.882Z,1.30
2023-03-15T22:08:01.869Z,1.03
2023-03-15T22:10:32.932Z,1.10
2023-03-15T22:13:04.068Z,1.10
2023-03-15T22:15:35.060Z,1.07
2023-03-15T22:18:06.123Z,1.10
2023-03-15T22:20:37.407Z,1.10
2023-03-15T22:23:08.478Z,1.20
2023-03-15T22:25:40.758Z,0.97
2023-03-15T22:28:11.839Z,1.13
2023-03-15T22:30:43.511Z,1.00
2023-03-15T22:33:14.835Z,1.20
2023-03-15T22:35:46.028Z,1.60
2023-03-15T22:38:17.017Z,1.10
2023-03-15T22:40:47.814Z,1.33
2023-03-15T22:43:19.265Z,1.60
2023-03-15T22:45:50.237Z,1.40
2023-03-15T22:48:21.104Z,1.20
2023-03-15T22:50:58.161Z,1.23
2023-03-15T22:53:29.582Z,1.37
2023-03-15T22:56:01.330Z,1.27
2023-03-15T22:58:32.419Z,2.40
2023-03-15T23:01:03.337Z,1.50
2023-03-15T23:03:34.425Z,1.87
2023-03-15T23:06:05.477Z,2.80
2023-03-15T23:08:36.624Z,1.80
2023-03-15T23:11:07.895Z,1.90
2023-03-15T23:13:38.883Z,1.70
2023-03-15T23:16:10.495Z,1.93
2023-03-15T23:18:41.983Z,1.80
2023-03-15T23:21:15.101Z,1.80
2023-03-15T23:23:45.865Z,1.80
2023-03-15T23:26:18.878Z,1.60
2023-03-15T23:28:49.758Z,1.50
2023-03-15T23:31:21.042Z,1.50
2023-03-15T23:34:10.611Z,1.67
2023-03-15T23:36:43.488Z,1.53
2023-03-15T23:39:14.490Z,1.70
2023-03-15T23:41:46.252Z,1.43
2023-03-15T23:44:17.451Z,1.50
2023-03-15T23:46:49.267Z,1.40
2023-03-15T23:49:20.999Z,1.60
2023-03-15T23:51:53.842Z,1.40
2023-03-15T23:54:25.089Z,1.60
2023-03-15T23:56:56.230Z,1.47
2023-03-15T23:59:28.456Z,2.17
